Whitten, Iowa
Current Conditions -  °F | °C
As of 4:20 AM on Sunday 21 Dec 2014 (Local Time) from KMIW Reporting Station
Haze Haze  
Wind Chill: 26°   Ceiling: 500
Heat Index: 35°   Visibility: 4mi
Dew Point: 35°   Wind: 13mph
Humidity: 100%   Direction: 170°S
Pressure: 30.01"   Gusts: NA
Location:  42.26°N, 93.01°W
Report Text: KMIW 211020Z AUTO 17011KT 4SM BR OVC005 02/02 A3001 RMK AO2 CIG 003V009 T00170017
Loading
Personal Weather Stations






























Interactive Weather Map New forecast layout! Learn more

10-Day Weather Forecast

Advertisements
Track Severe Weather on mobile